Embaba, Egypt

12:02 PM EET on December 29, 2014 (GMT +0200)
Cairo International | Change Station
CLOSE
Current Station
Airport
Location: Cairo,
Elevation: 243 ft
Nearby Weather Stations

Elev 243 ft 30.11 °N, 31.41 °E | Updated 2 minutes ago

Clear
Clear
64 °F
Feels Like 64 °F
N
7
Wind Variable Wind from SSW

Today
High -- | Low -- °F
--% Chance of Precip.
Yesterday
High -- | Low -- °F
Precip. -- in
6:50 AM 5:04 PM
First Quarter, 57% visible
Pressure 30.15 in
Visibility 3.7 miles
Clouds
Dew Point 36 °F
Humidity 34%
Rainfall 0.00 in
Snow Depth Not available.
UV Not available.
Pollen Not available.
Air Quality Not available.
Flu Activity Not available.
METAR HECA 291000Z 21006KT 6000 NSC 18/02 Q1021 NOSIG

More Conditions Fewer Conditions

Pressure 30.15 in
Visibility 3.7 miles
Clouds
Dew Point 36 °F
Humidity 34%
Rainfall 0.00 in
Snow Depth Not available.
UV Not available.
Pollen Not available.
Air Quality Not available.
Flu Activity Not available.
METAR HECA 291000Z 21006KT 6000 NSC 18/02 Q1021 NOSIG

More Conditions Fewer Conditions

10-Day Weather Forecast

Almanac

Astronomy

Dec. 29, 2014 Rise Set
Actual Time
Civil Twilight
Nautical Twilight
Astronomical Twilight
Moon
Length of Visible Light
Length of Day
Tomorrow will be .
, % of the Moon is Illuminated

Today's Extremes

Country Highs Country Lows

Community

WunderPhotos

Upload Photos

1,781,563 photos uploaded!

WunderBlogs® & News

Nearby

Air Quality

  Air Quality AQ Index Pollutant
Not available.

Snow Depth

Station Depth Elevation

Earthquake Activity

City Distance Mag. Time & Date
Minimum magnitude displayed is 2.5.

Coastal Water Temperatures

Place Temperature

Nearby Weather Stations